Terminal Aerodrome Forecast
Issued by NWS

Home | Current Version | Previous Version | Text Only | Print | Product List | Glossary On
Versions: 1 2 3 4 5 6 7 8 9 10 11 12 13 14 15 16 17 18 19 20 21 22 23 24 25
000
FTUS41 KBUF 011700
TAFIAG
TAF
KIAG 011726Z 0118/0218 23003KT 6SM -SN OVC025
     FM012300 23006KT 2SM -SN OVC025
     FM020300 25008KT 4SM -SN OVC035
     FM020700 25013KT P6SM VCSH OVC030
     FM021000 25014KT P6SM OVC035
     FM021400 27017G26KT P6SM BKN045=

USA.gov is the U.S. government's official web portal to all federal, state and local government web resources and services.